createdAt,value
2019-03-08T00:01:54.895Z,98378.75
2019-03-08T00:12:00.134Z,98399.45
2019-03-08T00:22:08.705Z,98415.92
2019-03-08T00:32:14.306Z,98413.38
2019-03-08T00:42:19.283Z,98419.83
2019-03-08T00:52:24.166Z,98438.41
2019-03-08T01:02:29.049Z,98436.70
2019-03-08T01:12:33.941Z,98428.61
2019-03-08T01:22:39.105Z,98432.26
2019-03-08T01:32:44.012Z,98425.88
2019-03-08T01:42:48.874Z,98433.78
2019-03-08T01:52:53.743Z,98430.11
2019-03-08T02:02:58.612Z,98445.58
2019-03-08T02:13:03.505Z,98443.09
2019-03-08T02:23:08.662Z,98439.09
2019-03-08T02:33:13.529Z,98449.62
2019-03-08T02:43:18.891Z,98441.38
2019-03-08T02:53:23.740Z,98443.31
2019-03-08T03:03:28.594Z,98459.07
2019-03-08T03:13:33.436Z,98463.40
2019-03-08T03:23:38.606Z,98477.33
2019-03-08T03:33:43.503Z,98456.23
2019-03-08T03:43:48.384Z,98467.14
2019-03-08T03:53:53.271Z,98467.58
2019-03-08T04:03:58.168Z,98458.29
2019-03-08T04:14:03.043Z,98461.41
2019-03-08T04:24:07.916Z,98461.06
2019-03-08T04:34:12.819Z,98459.86
2019-03-08T04:44:17.705Z,98441.45
2019-03-08T04:54:22.572Z,98431.00
2019-03-08T05:04:27.448Z,98432.31
2019-03-08T05:14:32.591Z,98423.05
2019-03-08T05:24:37.493Z,98429.52
2019-03-08T05:34:42.387Z,98434.62
2019-03-08T05:44:47.282Z,98425.80
2019-03-08T05:54:52.160Z,98432.06
2019-03-08T06:04:57.107Z,98421.19
2019-03-08T06:15:01.998Z,98428.97
2019-03-08T06:25:07.379Z,98429.16
2019-03-08T06:35:12.614Z,98444.87
2019-03-08T06:45:18.303Z,98443.45
2019-03-08T06:55:23.429Z,98440.73
2019-03-08T07:05:28.459Z,98453.05
2019-03-08T07:15:33.365Z,98461.94
2019-03-08T07:25:58.023Z,98476.25
2019-03-08T07:36:13.054Z,98465.03
2019-03-08T07:46:37.645Z,98465.84
2019-03-08T07:56:44.074Z,98477.59
2019-03-08T08:06:53.209Z,98468.59
2019-03-08T08:17:15.536Z,98471.28
2019-03-08T08:27:21.980Z,98480.30
2019-03-08T08:37:37.478Z,98476.16
2019-03-08T08:47:46.735Z,98471.15
2019-03-08T08:58:09.249Z,98444.92
2019-03-08T09:08:15.720Z,98441.38
2019-03-08T09:18:34.056Z,98434.70
2019-03-08T09:28:43.478Z,98434.49
2019-03-08T09:38:50.324Z,98409.63
2019-03-08T09:49:02.522Z,98443.63
2019-03-08T09:59:25.114Z,98440.75
2019-03-08T10:09:31.568Z,98465.20
2019-03-08T10:19:43.717Z,98470.47
2019-03-08T10:30:05.085Z,98460.66
2019-03-08T10:40:11.470Z,98493.17
2019-03-08T10:50:33.810Z,98487.05
2019-03-08T11:00:55.281Z,98501.98
2019-03-08T11:11:16.648Z,98494.16
2019-03-08T11:21:26.164Z,98482.02
2019-03-08T11:31:35.621Z,98488.09
2019-03-08T11:41:54.036Z,98490.88
2019-03-08T11:52:12.226Z,98492.21
2019-03-08T12:02:27.748Z,98491.55
2019-03-08T12:12:34.184Z,98502.28
2019-03-08T12:22:40.651Z,98509.91
2019-03-08T12:32:53.237Z,98520.86
2019-03-08T12:43:07.584Z,98545.01
2019-03-08T12:53:11.732Z,98539.38
2019-03-08T13:03:30.224Z,98562.95
2019-03-08T13:13:35.127Z,98572.22
2019-03-08T13:23:40.019Z,98584.59
2019-03-08T13:33:44.907Z,98603.93
2019-03-08T13:43:49.793Z,98598.56
2019-03-08T13:53:54.784Z,98612.63
2019-03-08T14:03:59.736Z,98615.14
2019-03-08T14:14:05.108Z,98625.86
2019-03-08T14:24:11.000Z,98626.38
2019-03-08T14:34:17.088Z,98638.54
2019-03-08T14:44:45.977Z,98655.75
2019-03-08T14:54:52.538Z,98667.28
2019-03-08T15:04:57.629Z,98678.78
2019-03-08T15:15:02.509Z,98692.58
2019-03-08T15:25:12.677Z,98691.13
2019-03-08T15:35:17.480Z,98689.55
2019-03-08T15:45:24.929Z,98701.88
2019-03-08T15:55:30.038Z,98725.95
2019-03-08T16:05:35.132Z,98727.64
2019-03-08T16:15:40.117Z,98743.51
2019-03-08T16:36:43.122Z,98755.95
2019-03-08T16:46:49.462Z,98776.34
2019-03-08T16:56:55.931Z,98786.18
2019-03-08T17:07:11.448Z,98809.83
2019-03-08T17:17:17.889Z,98823.24
2019-03-08T17:27:24.475Z,98832.54
2019-03-08T17:37:30.967Z,98847.72
2019-03-08T17:47:46.584Z,98863.22
2019-03-08T17:58:04.765Z,98882.48
2019-03-08T18:08:14.235Z,98904.59
2019-03-08T18:18:20.690Z,98925.97
2019-03-08T18:28:27.131Z,99008.05
2019-03-08T18:38:42.836Z,99018.84
2019-03-08T18:59:22.238Z,99054.50
2019-03-08T19:09:31.901Z,99067.05
2019-03-08T19:30:35.739Z,99086.83
2019-03-08T19:40:45.687Z,99103.11
2019-03-08T19:51:08.742Z,99104.70
2019-03-08T20:01:18.327Z,99117.91
2019-03-08T20:11:30.960Z,99131.16
2019-03-08T20:21:55.627Z,99147.05
2019-03-08T20:32:11.098Z,99156.41
2019-03-08T20:42:33.891Z,99165.73
2019-03-08T20:52:38.992Z,99183.61
2019-03-08T21:02:44.299Z,99192.58
2019-03-08T21:12:49.616Z,99192.75
2019-03-08T21:22:54.757Z,99209.92
2019-03-08T21:32:59.959Z,99229.30
2019-03-08T21:43:06.465Z,99235.45
2019-03-08T21:53:11.550Z,99243.40
2019-03-08T22:03:16.541Z,99247.46
2019-03-08T22:13:21.650Z,99268.22
2019-03-08T22:23:26.494Z,99282.76
2019-03-08T22:33:31.411Z,99278.20
2019-03-08T22:43:36.280Z,99283.18
2019-03-08T22:53:41.227Z,99282.47
2019-03-08T23:03:46.306Z,99287.27
2019-03-08T23:13:51.471Z,99295.91
2019-03-08T23:23:56.360Z,99292.73
2019-03-08T23:34:02.910Z,99304.26
2019-03-08T23:44:07.920Z,99307.77
2019-03-08T23:54:12.824Z,99315.75
